sensor_id;sensor_type;location;lat;lon;timestamp;temperature;humidity
52903;DHT22;38765;53.176;7.090;2022-09-17T00:00:28;11.50;99.90
52903;DHT22;38765;53.176;7.090;2022-09-17T00:03:40;11.60;99.90
52903;DHT22;38765;53.176;7.090;2022-09-17T00:06:25;11.40;99.90
52903;DHT22;38765;53.176;7.090;2022-09-17T00:09:28;11.80;99.90
52903;DHT22;38765;53.176;7.090;2022-09-17T00:12:19;11.60;99.90
52903;DHT22;38765;53.176;7.090;2022-09-17T00:15:10;11.50;99.90
52903;DHT22;38765;53.176;7.090;2022-09-17T00:18:24;11.50;99.90
52903;DHT22;38765;53.176;7.090;2022-09-17T00:21:35;11.50;99.90
52903;DHT22;38765;53.176;7.090;2022-09-17T00:24:15;11.40;99.90
52903;DHT22;38765;53.176;7.090;2022-09-17T00:27:04;11.40;99.90
52903;DHT22;38765;53.176;7.090;2022-09-17T00:30:14;11.40;99.90
52903;DHT22;38765;53.176;7.090;2022-09-17T00:33:15;11.20;99.90
52903;DHT22;38765;53.176;7.090;2022-09-17T00:36:25;11.20;99.90
52903;DHT22;38765;53.176;7.090;2022-09-17T00:41:59;11.20;99.90
52903;DHT22;38765;53.176;7.090;2022-09-17T00:45:02;11.40;99.90
52903;DHT22;38765;53.176;7.090;2022-09-17T00:51:44;11.40;99.90
52903;DHT22;38765;53.176;7.090;2022-09-17T00:57:50;11.40;99.90
52903;DHT22;38765;53.176;7.090;2022-09-17T01:01:12;10.90;99.90
52903;DHT22;38765;53.176;7.090;2022-09-17T01:04:14;11.20;99.90
52903;DHT22;38765;53.176;7.090;2022-09-17T01:22:26;11.20;99.90
52903;DHT22;38765;53.176;7.090;2022-09-17T01:35:12;11.20;99.90
52903;DHT22;38765;53.176;7.090;2022-09-17T01:45:28;11.10;99.90
52903;DHT22;38765;53.176;7.090;2022-09-17T01:48:22;11.00;99.90
52903;DHT22;38765;53.176;7.090;2022-09-17T01:51:40;11.10;99.90
52903;DHT22;38765;53.176;7.090;2022-09-17T01:57:43;10.90;99.90
52903;DHT22;38765;53.176;7.090;2022-09-17T02:01:10;10.90;99.90
52903;DHT22;38765;53.176;7.090;2022-09-17T02:04:14;10.90;99.90
52903;DHT22;38765;53.176;7.090;2022-09-17T02:06:52;10.90;99.90
52903;DHT22;38765;53.176;7.090;2022-09-17T02:13:16;10.90;99.90
52903;DHT22;38765;53.176;7.090;2022-09-17T02:16:13;10.90;99.90
52903;DHT22;38765;53.176;7.090;2022-09-17T02:22:31;10.90;99.90
52903;DHT22;38765;53.176;7.090;2022-09-17T02:26:01;10.90;99.90
52903;DHT22;38765;53.176;7.090;2022-09-17T02:29:18;10.60;99.90
52903;DHT22;38765;53.176;7.090;2022-09-17T02:32:20;10.70;99.90
52903;DHT22;38765;53.176;7.090;2022-09-17T02:35:20;10.90;99.90
52903;DHT22;38765;53.176;7.090;2022-09-17T02:38:09;10.80;99.90
52903;DHT22;38765;53.176;7.090;2022-09-17T03:00:33;10.60;99.90
52903;DHT22;38765;53.176;7.090;2022-09-17T03:03:20;10.60;99.90
52903;DHT22;38765;53.176;7.090;2022-09-17T03:06:17;10.50;99.90
52903;DHT22;38765;53.176;7.090;2022-09-17T03:09:25;9.90;99.90
52903;DHT22;38765;53.176;7.090;2022-09-17T03:12:17;10.50;99.90
52903;DHT22;38765;53.176;7.090;2022-09-17T03:14:45;10.70;99.90
52903;DHT22;38765;53.176;7.090;2022-09-17T03:17:29;10.30;99.90
52903;DHT22;38765;53.176;7.090;2022-09-17T03:20:20;10.30;99.90
52903;DHT22;38765;53.176;7.090;2022-09-17T03:23:20;10.30;99.90
52903;DHT22;38765;53.176;7.090;2022-09-17T03:29:07;10.50;99.90
52903;DHT22;38765;53.176;7.090;2022-09-17T03:31:33;10.20;99.90
52903;DHT22;38765;53.176;7.090;2022-09-17T03:34:37;10.30;99.90
52903;DHT22;38765;53.176;7.090;2022-09-17T03:37:16;10.30;99.90
52903;DHT22;38765;53.176;7.090;2022-09-17T03:40:21;10.30;99.90
52903;DHT22;38765;53.176;7.090;2022-09-17T03:47:06;10.60;99.90
52903;DHT22;38765;53.176;7.090;2022-09-17T03:49:47;11.40;99.90
52903;DHT22;38765;53.176;7.090;2022-09-17T03:52:49;10.60;99.90
52903;DHT22;38765;53.176;7.090;2022-09-17T03:56:04;10.70;99.90
52903;DHT22;38765;53.176;7.090;2022-09-17T03:59:21;10.70;99.90
52903;DHT22;38765;53.176;7.090;2022-09-17T04:11:35;10.60;99.90
52903;DHT22;38765;53.176;7.090;2022-09-17T04:14:33;10.10;99.90
52903;DHT22;38765;53.176;7.090;2022-09-17T04:18:02;10.90;99.90
52903;DHT22;38765;53.176;7.090;2022-09-17T04:21:01;10.50;99.90
52903;DHT22;38765;53.176;7.090;2022-09-17T04:24:08;10.50;99.90
52903;DHT22;38765;53.176;7.090;2022-09-17T04:27:20;10.50;99.90
52903;DHT22;38765;53.176;7.090;2022-09-17T04:30:01;10.50;99.90
52903;DHT22;38765;53.176;7.090;2022-09-17T04:32:50;10.20;99.90
52903;DHT22;38765;53.176;7.090;2022-09-17T04:36:12;10.40;99.90
52903;DHT22;38765;53.176;7.090;2022-09-17T04:42:19;10.30;99.90
52903;DHT22;38765;53.176;7.090;2022-09-17T04:45:21;10.20;99.90
52903;DHT22;38765;53.176;7.090;2022-09-17T04:53:50;9.90;99.90
52903;DHT22;38765;53.176;7.090;2022-09-17T05:00:23;10.30;99.90
52903;DHT22;38765;53.176;7.090;2022-09-17T05:03:39;10.30;99.90
52903;DHT22;38765;53.176;7.090;2022-09-17T05:06:58;10.50;99.90
52903;DHT22;38765;53.176;7.090;2022-09-17T05:15:43;10.10;99.90
52903;DHT22;38765;53.176;7.090;2022-09-17T05:24:48;10.10;99.90
52903;DHT22;38765;53.176;7.090;2022-09-17T05:27:51;10.00;99.90
52903;DHT22;38765;53.176;7.090;2022-09-17T05:33:45;10.60;99.90
52903;DHT22;38765;53.176;7.090;2022-09-17T05:36:40;10.20;99.90
52903;DHT22;38765;53.176;7.090;2022-09-17T05:39:47;10.20;99.90
52903;DHT22;38765;53.176;7.090;2022-09-17T05:42:32;10.20;99.90
52903;DHT22;38765;53.176;7.090;2022-09-17T05:51:52;10.10;99.90
52903;DHT22;38765;53.176;7.090;2022-09-17T05:55:06;10.20;99.90
52903;DHT22;38765;53.176;7.090;2022-09-17T05:57:40;10.20;99.90
52903;DHT22;38765;53.176;7.090;2022-09-17T06:00:59;10.80;99.90
52903;DHT22;38765;53.176;7.090;2022-09-17T06:10:27;10.20;99.90
52903;DHT22;38765;53.176;7.090;2022-09-17T06:17:01;10.20;99.90
52903;DHT22;38765;53.176;7.090;2022-09-17T06:20:04;10.20;99.90
52903;DHT22;38765;53.176;7.090;2022-09-17T06:22:40;10.20;99.90
52903;DHT22;38765;53.176;7.090;2022-09-17T06:29:34;10.00;99.90
52903;DHT22;38765;53.176;7.090;2022-09-17T06:32:49;9.90;99.90
52903;DHT22;38765;53.176;7.090;2022-09-17T06:35:46;9.90;99.90
52903;DHT22;38765;53.176;7.090;2022-09-17T06:39:06;10.40;99.90
52903;DHT22;38765;53.176;7.090;2022-09-17T06:41:59;10.90;99.90
52903;DHT22;38765;53.176;7.090;2022-09-17T06:51:01;10.70;99.90
52903;DHT22;38765;53.176;7.090;2022-09-17T06:53:38;10.70;99.90
52903;DHT22;38765;53.176;7.090;2022-09-17T06:56:07;10.70;99.90
52903;DHT22;38765;53.176;7.090;2022-09-17T06:58:55;10.70;99.90
52903;DHT22;38765;53.176;7.090;2022-09-17T07:01:31;10.70;99.90
52903;DHT22;38765;53.176;7.090;2022-09-17T07:04:14;10.70;99.90
52903;DHT22;38765;53.176;7.090;2022-09-17T07:07:12;10.70;99.90
52903;DHT22;38765;53.176;7.090;2022-09-17T07:10:18;10.70;99.90
52903;DHT22;38765;53.176;7.090;2022-09-17T07:12:43;10.80;99.90
52903;DHT22;38765;53.176;7.090;2022-09-17T07:15:38;10.80;99.90
52903;DHT22;38765;53.176;7.090;2022-09-17T07:18:44;10.90;99.90
52903;DHT22;38765;53.176;7.090;2022-09-17T07:21:31;10.90;99.90
52903;DHT22;38765;53.176;7.090;2022-09-17T07:24:27;10.90;99.90
52903;DHT22;38765;53.176;7.090;2022-09-17T07:26:58;10.50;99.90
52903;DHT22;38765;53.176;7.090;2022-09-17T07:29:26;11.10;99.90
52903;DHT22;38765;53.176;7.090;2022-09-17T07:32:10;11.00;99.90
52903;DHT22;38765;53.176;7.090;2022-09-17T07:35:04;10.90;99.90
52903;DHT22;38765;53.176;7.090;2022-09-17T07:37:34;11.10;99.90
52903;DHT22;38765;53.176;7.090;2022-09-17T07:40:13;11.10;99.90
52903;DHT22;38765;53.176;7.090;2022-09-17T07:42:59;11.20;99.90
52903;DHT22;38765;53.176;7.090;2022-09-17T07:45:58;11.30;99.90
52903;DHT22;38765;53.176;7.090;2022-09-17T07:48:38;11.40;99.90
52903;DHT22;38765;53.176;7.090;2022-09-17T07:51:05;11.60;99.90
52903;DHT22;38765;53.176;7.090;2022-09-17T07:53:55;11.70;99.90
52903;DHT22;38765;53.176;7.090;2022-09-17T07:56:51;11.40;99.90
52903;DHT22;38765;53.176;7.090;2022-09-17T07:59:39;11.80;99.90
52903;DHT22;38765;53.176;7.090;2022-09-17T08:02:20;11.90;99.90
52903;DHT22;38765;53.176;7.090;2022-09-17T08:04:58;12.00;99.90
52903;DHT22;38765;53.176;7.090;2022-09-17T08:07:24;12.00;99.90
52903;DHT22;38765;53.176;7.090;2022-09-17T08:10:10;12.10;99.90
52903;DHT22;38765;53.176;7.090;2022-09-17T08:12:39;12.20;99.90
52903;DHT22;38765;53.176;7.090;2022-09-17T08:15:10;12.10;99.90
52903;DHT22;38765;53.176;7.090;2022-09-17T08:18:13;12.50;99.90
52903;DHT22;38765;53.176;7.090;2022-09-17T08:21:03;11.80;99.90
52903;DHT22;38765;53.176;7.090;2022-09-17T08:23:37;11.70;99.90
52903;DHT22;38765;53.176;7.090;2022-09-17T08:26:19;11.50;99.90
52903;DHT22;38765;53.176;7.090;2022-09-17T08:29:01;11.40;99.90
52903;DHT22;38765;53.176;7.090;2022-09-17T08:31:52;11.40;99.90
52903;DHT22;38765;53.176;7.090;2022-09-17T08:34:37;12.10;99.90
52903;DHT22;38765;53.176;7.090;2022-09-17T08:37:13;11.30;99.90
52903;DHT22;38765;53.176;7.090;2022-09-17T08:39:56;11.30;99.90
52903;DHT22;38765;53.176;7.090;2022-09-17T08:42:38;11.30;99.90
52903;DHT22;38765;53.176;7.090;2022-09-17T08:45:13;10.90;99.90
52903;DHT22;38765;53.176;7.090;2022-09-17T08:47:51;11.30;99.90
52903;DHT22;38765;53.176;7.090;2022-09-17T08:50:44;11.80;99.90
52903;DHT22;38765;53.176;7.090;2022-09-17T08:53:55;11.40;99.90
52903;DHT22;38765;53.176;7.090;2022-09-17T08:57:14;11.50;99.90
52903;DHT22;38765;53.176;7.090;2022-09-17T09:00:11;11.60;99.90
52903;DHT22;38765;53.176;7.090;2022-09-17T09:05:54;11.80;99.90
52903;DHT22;38765;53.176;7.090;2022-09-17T09:08:41;12.00;99.90
52903;DHT22;38765;53.176;7.090;2022-09-17T09:14:32;12.40;99.90
52903;DHT22;38765;53.176;7.090;2022-09-17T09:17:12;12.40;99.90
52903;DHT22;38765;53.176;7.090;2022-09-17T09:20:20;12.70;99.90
52903;DHT22;38765;53.176;7.090;2022-09-17T09:26:16;13.00;99.90
52903;DHT22;38765;53.176;7.090;2022-09-17T09:29:15;13.10;99.90
52903;DHT22;38765;53.176;7.090;2022-09-17T09:35:19;13.50;99.90
52903;DHT22;38765;53.176;7.090;2022-09-17T09:38:35;13.10;99.90
52903;DHT22;38765;53.176;7.090;2022-09-17T09:44:46;13.30;99.90
52903;DHT22;38765;53.176;7.090;2022-09-17T09:53:35;12.90;99.90
52903;DHT22;38765;53.176;7.090;2022-09-17T09:56:55;13.70;99.90
52903;DHT22;38765;53.176;7.090;2022-09-17T09:59:41;13.90;99.90
52903;DHT22;38765;53.176;7.090;2022-09-17T10:02:20;14.00;99.90
52903;DHT22;38765;53.176;7.090;2022-09-17T10:04:54;14.10;99.90
52903;DHT22;38765;53.176;7.090;2022-09-17T10:08:13;14.10;99.90
52903;DHT22;38765;53.176;7.090;2022-09-17T10:14:25;14.00;99.90
52903;DHT22;38765;53.176;7.090;2022-09-17T10:22:52;14.30;99.90
52903;DHT22;38765;53.176;7.090;2022-09-17T10:25:34;14.40;99.90
52903;DHT22;38765;53.176;7.090;2022-09-17T10:28:42;14.40;99.90
52903;DHT22;38765;53.176;7.090;2022-09-17T10:31:16;14.50;99.90
52903;DHT22;38765;53.176;7.090;2022-09-17T10:44:16;14.70;99.90
52903;DHT22;38765;53.176;7.090;2022-09-17T10:57:17;13.80;99.90
52903;DHT22;38765;53.176;7.090;2022-09-17T11:37:30;15.20;99.90
52903;DHT22;38765;53.176;7.090;2022-09-17T11:40:05;15.10;99.90
52903;DHT22;38765;53.176;7.090;2022-09-17T11:45:45;15.20;99.90
52903;DHT22;38765;53.176;7.090;2022-09-17T11:48:20;15.40;99.90
52903;DHT22;38765;53.176;7.090;2022-09-17T11:51:04;15.20;99.90
52903;DHT22;38765;53.176;7.090;2022-09-17T11:54:14;15.60;99.90
52903;DHT22;38765;53.176;7.090;2022-09-17T11:56:40;15.60;99.90
52903;DHT22;38765;53.176;7.090;2022-09-17T11:59:13;15.60;99.90
52903;DHT22;38765;53.176;7.090;2022-09-17T12:13:33;14.80;99.90
52903;DHT22;38765;53.176;7.090;2022-09-17T12:16:18;14.80;99.90
52903;DHT22;38765;53.176;7.090;2022-09-17T12:22:07;15.00;99.90
52903;DHT22;38765;53.176;7.090;2022-09-17T12:24:37;15.20;99.90
52903;DHT22;38765;53.176;7.090;2022-09-17T12:30:28;15.40;99.90
52903;DHT22;38765;53.176;7.090;2022-09-17T12:33:21;15.40;99.90
52903;DHT22;38765;53.176;7.090;2022-09-17T12:41:50;15.50;99.90
52903;DHT22;38765;53.176;7.090;2022-09-17T12:44:35;15.60;99.90
52903;DHT22;38765;53.176;7.090;2022-09-17T12:52:54;15.70;99.90
52903;DHT22;38765;53.176;7.090;2022-09-17T12:59:10;15.60;99.90
52903;DHT22;38765;53.176;7.090;2022-09-17T13:17:51;15.30;99.90
52903;DHT22;38765;53.176;7.090;2022-09-17T13:23:07;15.90;99.90
52903;DHT22;38765;53.176;7.090;2022-09-17T13:28:50;15.80;99.90
52903;DHT22;38765;53.176;7.090;2022-09-17T13:34:30;15.50;99.90
52903;DHT22;38765;53.176;7.090;2022-09-17T13:42:43;15.80;99.90
52903;DHT22;38765;53.176;7.090;2022-09-17T13:45:20;15.60;99.90
52903;DHT22;38765;53.176;7.090;2022-09-17T13:50:34;15.60;99.90
52903;DHT22;38765;53.176;7.090;2022-09-17T13:53:15;15.30;99.90
52903;DHT22;38765;53.176;7.090;2022-09-17T13:55:53;15.80;99.90
52903;DHT22;38765;53.176;7.090;2022-09-17T14:01:15;15.90;99.90
52903;DHT22;38765;53.176;7.090;2022-09-17T14:10:26;15.80;99.90
52903;DHT22;38765;53.176;7.090;2022-09-17T14:19:46;15.60;99.90
52903;DHT22;38765;53.176;7.090;2022-09-17T14:22:24;15.50;99.90
52903;DHT22;38765;53.176;7.090;2022-09-17T14:25:02;15.40;99.90
52903;DHT22;38765;53.176;7.090;2022-09-17T14:27:55;15.20;99.90
52903;DHT22;38765;53.176;7.090;2022-09-17T14:45:49;15.30;99.90
52903;DHT22;38765;53.176;7.090;2022-09-17T14:51:54;15.40;99.90
52903;DHT22;38765;53.176;7.090;2022-09-17T14:54:32;15.50;99.90
52903;DHT22;38765;53.176;7.090;2022-09-17T14:57:26;15.30;99.90
52903;DHT22;38765;53.176;7.090;2022-09-17T15:00:16;15.30;99.90
52903;DHT22;38765;53.176;7.090;2022-09-17T15:02:51;15.40;99.90
52903;DHT22;38765;53.176;7.090;2022-09-17T15:05:46;15.40;99.90
52903;DHT22;38765;53.176;7.090;2022-09-17T15:08:23;15.50;99.90
52903;DHT22;38765;53.176;7.090;2022-09-17T15:10:58;15.30;99.90
52903;DHT22;38765;53.176;7.090;2022-09-17T15:13:48;15.40;99.90
52903;DHT22;38765;53.176;7.090;2022-09-17T15:16:29;15.40;99.90
52903;DHT22;38765;53.176;7.090;2022-09-17T15:19:09;15.30;99.90
52903;DHT22;38765;53.176;7.090;2022-09-17T15:21:44;15.20;99.90
52903;DHT22;38765;53.176;7.090;2022-09-17T15:27:33;14.90;99.90
52903;DHT22;38765;53.176;7.090;2022-09-17T15:30:22;14.80;99.90
52903;DHT22;38765;53.176;7.090;2022-09-17T15:32:54;14.70;99.90
52903;DHT22;38765;53.176;7.090;2022-09-17T15:35:25;14.70;99.90
52903;DHT22;38765;53.176;7.090;2022-09-17T15:37:58;14.50;99.90
52903;DHT22;38765;53.176;7.090;2022-09-17T15:40:32;14.40;99.90
52903;DHT22;38765;53.176;7.090;2022-09-17T15:43:34;14.30;99.90
52903;DHT22;38765;53.176;7.090;2022-09-17T15:46:30;14.30;99.90
52903;DHT22;38765;53.176;7.090;2022-09-17T15:49:23;14.20;99.90
52903;DHT22;38765;53.176;7.090;2022-09-17T15:51:53;14.20;99.90
52903;DHT22;38765;53.176;7.090;2022-09-17T15:54:30;14.30;99.90
52903;DHT22;38765;53.176;7.090;2022-09-17T15:57:13;14.30;99.90
52903;DHT22;38765;53.176;7.090;2022-09-17T15:59:43;14.30;99.90
52903;DHT22;38765;53.176;7.090;2022-09-17T16:02:25;14.30;99.90
52903;DHT22;38765;53.176;7.090;2022-09-17T16:07:41;14.30;99.90
52903;DHT22;38765;53.176;7.090;2022-09-17T16:10:11;14.40;99.90
52903;DHT22;38765;53.176;7.090;2022-09-17T16:12:38;14.40;99.90
52903;DHT22;38765;53.176;7.090;2022-09-17T16:15:07;14.30;99.90
52903;DHT22;38765;53.176;7.090;2022-09-17T16:20:20;14.10;99.90
52903;DHT22;38765;53.176;7.090;2022-09-17T16:22:49;14.00;99.90
52903;DHT22;38765;53.176;7.090;2022-09-17T16:25:16;13.90;99.90
52903;DHT22;38765;53.176;7.090;2022-09-17T16:28:07;13.90;99.90
52903;DHT22;38765;53.176;7.090;2022-09-17T16:30:34;13.80;99.90
52903;DHT22;38765;53.176;7.090;2022-09-17T16:33:03;13.80;99.90
52903;DHT22;38765;53.176;7.090;2022-09-17T16:35:31;13.70;99.90
52903;DHT22;38765;53.176;7.090;2022-09-17T16:38:02;13.70;99.90
52903;DHT22;38765;53.176;7.090;2022-09-17T16:43:01;13.70;99.90
52903;DHT22;38765;53.176;7.090;2022-09-17T16:45:30;13.70;99.90
52903;DHT22;38765;53.176;7.090;2022-09-17T16:47:59;13.70;99.90
52903;DHT22;38765;53.176;7.090;2022-09-17T16:50:25;13.70;99.90
52903;DHT22;38765;53.176;7.090;2022-09-17T16:52:53;13.60;99.90
52903;DHT22;38765;53.176;7.090;2022-09-17T16:55:20;13.50;99.90
52903;DHT22;38765;53.176;7.090;2022-09-17T16:57:51;13.50;99.90
52903;DHT22;38765;53.176;7.090;2022-09-17T17:00:18;13.60;99.90
52903;DHT22;38765;53.176;7.090;2022-09-17T17:02:53;13.40;99.90
52903;DHT22;38765;53.176;7.090;2022-09-17T17:05:24;12.90;99.90
52903;DHT22;38765;53.176;7.090;2022-09-17T17:10:39;12.30;99.90
52903;DHT22;38765;53.176;7.090;2022-09-17T17:13:08;11.90;99.90
52903;DHT22;38765;53.176;7.090;2022-09-17T17:15:41;11.70;99.90
52903;DHT22;38765;53.176;7.090;2022-09-17T17:18:07;11.50;99.90
52903;DHT22;38765;53.176;7.090;2022-09-17T17:20:36;11.50;99.90
52903;DHT22;38765;53.176;7.090;2022-09-17T17:23:02;11.40;99.90
52903;DHT22;38765;53.176;7.090;2022-09-17T17:25:33;11.40;99.90
52903;DHT22;38765;53.176;7.090;2022-09-17T17:28:06;11.30;99.90
52903;DHT22;38765;53.176;7.090;2022-09-17T17:30:47;11.30;99.90
52903;DHT22;38765;53.176;7.090;2022-09-17T17:33:15;11.20;99.90
52903;DHT22;38765;53.176;7.090;2022-09-17T17:35:41;11.20;99.90
52903;DHT22;38765;53.176;7.090;2022-09-17T17:38:12;11.20;99.90
52903;DHT22;38765;53.176;7.090;2022-09-17T17:40:49;11.20;99.90
52903;DHT22;38765;53.176;7.090;2022-09-17T17:43:25;11.20;99.90
52903;DHT22;38765;53.176;7.090;2022-09-17T17:45:55;11.20;99.90
52903;DHT22;38765;53.176;7.090;2022-09-17T17:48:28;11.20;99.90
52903;DHT22;38765;53.176;7.090;2022-09-17T17:51:00;11.40;99.90
52903;DHT22;38765;53.176;7.090;2022-09-17T17:53:36;11.20;99.90
52903;DHT22;38765;53.176;7.090;2022-09-17T17:56:14;10.80;99.90
52903;DHT22;38765;53.176;7.090;2022-09-17T17:59:07;11.20;99.90
52903;DHT22;38765;53.176;7.090;2022-09-17T18:01:33;11.20;99.90
52903;DHT22;38765;53.176;7.090;2022-09-17T18:04:03;11.20;99.90
52903;DHT22;38765;53.176;7.090;2022-09-17T18:06:33;11.20;99.90
52903;DHT22;38765;53.176;7.090;2022-09-17T18:08:59;11.20;99.90
52903;DHT22;38765;53.176;7.090;2022-09-17T18:11:28;11.20;99.90
52903;DHT22;38765;53.176;7.090;2022-09-17T18:14:00;11.10;99.90
52903;DHT22;38765;53.176;7.090;2022-09-17T18:16:27;11.20;99.90
52903;DHT22;38765;53.176;7.090;2022-09-17T18:19:03;11.20;99.90
52903;DHT22;38765;53.176;7.090;2022-09-17T18:21:31;11.20;99.90
52903;DHT22;38765;53.176;7.090;2022-09-17T18:24:00;11.10;99.90
52903;DHT22;38765;53.176;7.090;2022-09-17T18:26:26;11.10;99.90
52903;DHT22;38765;53.176;7.090;2022-09-17T18:28:55;11.10;99.90
52903;DHT22;38765;53.176;7.090;2022-09-17T18:31:36;11.10;99.90
52903;DHT22;38765;53.176;7.090;2022-09-17T18:34:13;11.00;99.90
52903;DHT22;38765;53.176;7.090;2022-09-17T18:36:51;11.00;99.90
52903;DHT22;38765;53.176;7.090;2022-09-17T18:39:17;11.00;99.90
52903;DHT22;38765;53.176;7.090;2022-09-17T18:41:46;11.00;99.90
52903;DHT22;38765;53.176;7.090;2022-09-17T18:44:15;11.00;99.90
52903;DHT22;38765;53.176;7.090;2022-09-17T18:46:43;11.00;99.90
52903;DHT22;38765;53.176;7.090;2022-09-17T18:49:12;11.00;99.90
52903;DHT22;38765;53.176;7.090;2022-09-17T18:51:44;10.90;99.90
52903;DHT22;38765;53.176;7.090;2022-09-17T18:54:32;11.50;99.90
52903;DHT22;38765;53.176;7.090;2022-09-17T18:57:03;10.90;99.90
52903;DHT22;38765;53.176;7.090;2022-09-17T18:59:45;11.00;99.90
52903;DHT22;38765;53.176;7.090;2022-09-17T19:02:11;10.90;99.90
52903;DHT22;38765;53.176;7.090;2022-09-17T19:04:39;10.70;99.90
52903;DHT22;38765;53.176;7.090;2022-09-17T19:07:07;10.90;99.90
52903;DHT22;38765;53.176;7.090;2022-09-17T19:09:33;10.90;99.90
52903;DHT22;38765;53.176;7.090;2022-09-17T19:11:59;10.90;99.90
52903;DHT22;38765;53.176;7.090;2022-09-17T19:14:25;11.00;99.90
52903;DHT22;38765;53.176;7.090;2022-09-17T19:16:53;11.00;99.90
52903;DHT22;38765;53.176;7.090;2022-09-17T19:19:24;11.00;99.90
52903;DHT22;38765;53.176;7.090;2022-09-17T19:21:53;11.00;99.90
52903;DHT22;38765;53.176;7.090;2022-09-17T19:27:42;11.00;99.90
52903;DHT22;38765;53.176;7.090;2022-09-17T19:30:39;11.00;99.90
52903;DHT22;38765;53.176;7.090;2022-09-17T19:35:46;11.00;99.90
52903;DHT22;38765;53.176;7.090;2022-09-17T19:39:07;10.80;99.90
52903;DHT22;38765;53.176;7.090;2022-09-17T19:45:25;11.10;99.90
52903;DHT22;38765;53.176;7.090;2022-09-17T19:48:26;11.20;99.90
52903;DHT22;38765;53.176;7.090;2022-09-17T19:50:54;11.20;99.90
52903;DHT22;38765;53.176;7.090;2022-09-17T19:56:31;11.30;99.90
52903;DHT22;38765;53.176;7.090;2022-09-17T20:16:28;11.10;99.90
52903;DHT22;38765;53.176;7.090;2022-09-17T20:25:30;11.00;99.90
52903;DHT22;38765;53.176;7.090;2022-09-17T20:28:03;10.90;99.90
52903;DHT22;38765;53.176;7.090;2022-09-17T20:30:45;10.50;99.90
52903;DHT22;38765;53.176;7.090;2022-09-17T20:33:14;10.70;99.90
52903;DHT22;38765;53.176;7.090;2022-09-17T20:36:10;10.90;99.90
52903;DHT22;38765;53.176;7.090;2022-09-17T20:42:27;10.90;99.90
52903;DHT22;38765;53.176;7.090;2022-09-17T20:44:58;10.80;99.90
52903;DHT22;38765;53.176;7.090;2022-09-17T20:47:29;10.80;99.90
52903;DHT22;38765;53.176;7.090;2022-09-17T20:53:54;10.90;99.90
52903;DHT22;38765;53.176;7.090;2022-09-17T21:06:39;10.80;99.90
52903;DHT22;38765;53.176;7.090;2022-09-17T21:09:35;10.60;99.90
52903;DHT22;38765;53.176;7.090;2022-09-17T21:20:52;10.80;99.90
52903;DHT22;38765;53.176;7.090;2022-09-17T21:23:45;10.80;99.90
52903;DHT22;38765;53.176;7.090;2022-09-17T21:33:21;10.80;99.90
52903;DHT22;38765;53.176;7.090;2022-09-17T21:36:23;10.80;99.90
52903;DHT22;38765;53.176;7.090;2022-09-17T21:38:56;10.80;99.90
52903;DHT22;38765;53.176;7.090;2022-09-17T21:44:14;10.90;99.90
52903;DHT22;38765;53.176;7.090;2022-09-17T21:46:45;10.80;99.90
52903;DHT22;38765;53.176;7.090;2022-09-17T21:49:13;10.80;99.90
52903;DHT22;38765;53.176;7.090;2022-09-17T21:52:04;10.80;99.90
52903;DHT22;38765;53.176;7.090;2022-09-17T21:54:36;10.80;99.90
52903;DHT22;38765;53.176;7.090;2022-09-17T21:57:06;10.80;99.90
52903;DHT22;38765;53.176;7.090;2022-09-17T21:59:37;11.40;99.90
52903;DHT22;38765;53.176;7.090;2022-09-17T22:02:08;10.80;99.90
52903;DHT22;38765;53.176;7.090;2022-09-17T22:04:33;10.80;99.90
52903;DHT22;38765;53.176;7.090;2022-09-17T22:07:06;10.90;99.90
52903;DHT22;38765;53.176;7.090;2022-09-17T22:09:32;10.90;99.90
52903;DHT22;38765;53.176;7.090;2022-09-17T22:12:03;10.70;99.90
52903;DHT22;38765;53.176;7.090;2022-09-17T22:14:32;10.90;99.90
52903;DHT22;38765;53.176;7.090;2022-09-17T22:17:01;10.90;99.90
52903;DHT22;38765;53.176;7.090;2022-09-17T22:19:34;11.00;99.90
52903;DHT22;38765;53.176;7.090;2022-09-17T22:22:04;10.90;99.90
52903;DHT22;38765;53.176;7.090;2022-09-17T22:24:32;11.40;99.90
52903;DHT22;38765;53.176;7.090;2022-09-17T22:32:27;10.80;99.90
52903;DHT22;38765;53.176;7.090;2022-09-17T22:35:25;10.80;99.90
52903;DHT22;38765;53.176;7.090;2022-09-17T22:38:01;10.70;99.90
52903;DHT22;38765;53.176;7.090;2022-09-17T22:43:45;10.60;99.90
52903;DHT22;38765;53.176;7.090;2022-09-17T22:46:18;10.60;99.90
52903;DHT22;38765;53.176;7.090;2022-09-17T22:48:51;10.60;99.90
52903;DHT22;38765;53.176;7.090;2022-09-17T22:51:26;10.60;99.90
52903;DHT22;38765;53.176;7.090;2022-09-17T22:53:55;10.70;99.90
52903;DHT22;38765;53.176;7.090;2022-09-17T22:56:25;10.60;99.90
52903;DHT22;38765;53.176;7.090;2022-09-17T22:59:03;10.60;99.90
52903;DHT22;38765;53.176;7.090;2022-09-17T23:01:38;10.60;99.90
52903;DHT22;38765;53.176;7.090;2022-09-17T23:04:12;10.50;99.90
52903;DHT22;38765;53.176;7.090;2022-09-17T23:06:41;10.50;99.90
52903;DHT22;38765;53.176;7.090;2022-09-17T23:09:12;10.50;99.90
52903;DHT22;38765;53.176;7.090;2022-09-17T23:11:41;10.50;99.90
52903;DHT22;38765;53.176;7.090;2022-09-17T23:14:11;10.40;99.90
52903;DHT22;38765;53.176;7.090;2022-09-17T23:16:58;10.10;99.90
52903;DHT22;38765;53.176;7.090;2022-09-17T23:19:51;10.40;99.90
52903;DHT22;38765;53.176;7.090;2022-09-17T23:22:38;10.30;99.90
52903;DHT22;38765;53.176;7.090;2022-09-17T23:25:04;10.30;99.90
52903;DHT22;38765;53.176;7.090;2022-09-17T23:27:29;9.80;99.90
52903;DHT22;38765;53.176;7.090;2022-09-17T23:30:15;10.20;99.90
52903;DHT22;38765;53.176;7.090;2022-09-17T23:32:44;10.40;99.90
52903;DHT22;38765;53.176;7.090;2022-09-17T23:35:12;10.10;99.90
52903;DHT22;38765;53.176;7.090;2022-09-17T23:38:06;10.10;99.90
52903;DHT22;38765;53.176;7.090;2022-09-17T23:43:09;10.10;99.90
52903;DHT22;38765;53.176;7.090;2022-09-17T23:46:19;10.10;99.90
52903;DHT22;38765;53.176;7.090;2022-09-17T23:48:51;10.10;99.90
52903;DHT22;38765;53.176;7.090;2022-09-17T23:51:33;10.10;99.90
52903;DHT22;38765;53.176;7.090;2022-09-17T23:54:10;10.20;99.90
52903;DHT22;38765;53.176;7.090;2022-09-17T23:56:45;10.10;99.90
52903;DHT22;38765;53.176;7.090;2022-09-17T23:59:29;10.10;99.90
